Latest Weather Observations for Marree Airport

IDS60801

Issued at 8:01 am CST Friday 21 July 2017 (issued every 30 minutes, with the page automatically refreshed every 10 minutes)

About weather observations | Map of weather stations | Latest weather observations for SA | Other Formats
Station Details ID: 017126 Name: MARREE AERO Lat: -29.66 Lon: 138.07 Height: 50.0 m
Data from the previous 72 hours. | See also: Recent months at Marree Airport
Date/Time
CST
Temp
°C
App
Temp
°C
Dew
Point
°C
Rel
Hum
%
Delta-T
°C
Wind Press
QNH
hPa
Press
MSL
hPa
Rain since
9am
mm
Dir  Spd
km/h
Gust
km/h
Spd
kts
Gust
kts
21/08:00am 4.9 0.9 0.5 73 1.7 ENE 11 13 6 7 1023.3 1023.4 0.0
21/07:30am 3.1 -1.4 -0.2 79 1.2 SE 13 15 7 8 1022.8 1022.9 0.0
21/07:00am 3.0 -1.9 -0.3 79 1.2 ENE 15 17 8 9 1022.5 1022.6 0.0
21/06:30am 2.8 -1.7 -0.5 79 1.2 NNE 13 15 7 8 1022.2 1022.2 0.0
21/06:00am 3.2 -1.7 -0.4 77 1.3 NE 15 17 8 9 1022.0 1022.0 0.0
21/05:30am 3.4 -1.5 -0.2 77 1.3 SE 15 17 8 9 1021.6 1021.6 0.0
21/05:00am 3.3 -1.6 -0.3 77 1.3 NE 15 17 8 9 1021.3 1021.3 0.0
21/04:30am 3.1 -1.5 -1.1 74 1.5 NE 13 13 7 7 1021.4 1021.4 0.0
21/04:00am 3.6 -1.0 -0.8 73 1.6 NNE 13 15 7 8 1021.5 1021.5 0.0
21/03:30am 3.4 -1.2 -1.2 72 1.7 NNE 13 15 7 8 1021.5 1021.5 0.0
21/03:00am 4.7 -0.2 -0.5 69 1.9 NE 15 17 8 9 1021.5 1021.5 0.0
21/02:30am 4.0 0.1 -1.4 68 2.0 NE 9 13 5 7 1021.4 1021.4 0.0
21/02:00am 4.6 2.1 -1.2 66 2.1 ENE 2 6 1 3 1021.4 1021.4 0.0
21/01:30am 6.3 3.0 0.0 64 2.4 NE 7 9 4 5 1021.5 1021.5 0.0
21/01:00am 7.1 3.5 0.3 62 2.7 ENE 9 11 5 6 1021.5 1021.5 0.0
21/12:30am 6.6 3.5 0.1 63 2.5 NE 6 7 3 4 1021.8 1021.8 0.0
21/12:00am 8.0 3.7 0.7 60 2.9 NE 13 15 7 8 1021.6 1021.6 0.0
 
Date/Time
CST
Temp
°C
App
Temp
°C
Dew
Point
°C
Rel
Hum
%
Delta-T
°C
Wind Press
QNH
hPa
Press
MSL
hPa
Rain since
9am
mm
Dir  Spd
km/h
Gust
km/h
Spd
kts
Gust
kts
20/11:30pm 7.4 2.9 -0.3 58 3.0 NE 13 13 7 7 1021.9 1021.9 0.0
20/11:00pm 8.4 4.3 -0.1 55 3.4 NE 11 17 6 9 1021.6 1021.6 0.0
20/10:30pm 8.5 4.8 -0.3 54 3.4 ENE 9 11 5 6 1022.0 1022.0 0.0
20/10:00pm 8.3 5.1 -0.2 55 3.3 NE 6 9 3 5 1021.8 1021.8 0.0
20/09:30pm 9.0 4.9 -0.3 52 3.7 ENE 11 15 6 8 1021.6 1021.6 0.0
20/09:00pm 10.3 5.5 0.1 49 4.1 ENE 15 17 8 9 1021.3 1021.3 0.0
20/08:30pm 10.5 5.7 0.0 48 4.2 ENE 15 17 8 9 1021.3 1021.3 0.0
20/08:00pm 11.2 6.7 0.0 46 4.6 NE 13 15 7 8 1021.5 1021.5 0.0
20/07:30pm 11.1 7.3 -0.7 44 4.7 NE 9 11 5 6 1021.4 1021.4 0.0
20/07:00pm 12.8 9.1 -0.1 41 5.3 NNE 9 9 5 5 1021.3 1021.3 0.0
20/06:30pm 13.6 9.9 -0.1 39 5.7 NE 9 9 5 5 1021.3 1021.3 0.0
20/06:00pm 14.4 10.3 -0.1 37 6.1 NNE 11 13 6 7 1021.0 1021.0 0.0
20/05:30pm 16.2 11.8 0.3 34 6.8 N 13 17 7 9 1020.6 1020.6 0.0
20/05:00pm 17.1 12.3 0.3 32 7.3 N 15 20 8 11 1020.4 1020.4 0.0
20/04:30pm 17.5 12.3 0.2 31 7.5 N 17 22 9 12 1020.3 1020.3 0.0
20/04:00pm 17.5 12.3 0.2 31 7.5 N 17 26 9 14 1020.4 1020.4 0.0
20/03:30pm 17.8 12.3 0.5 31 7.6 N 19 28 10 15 1020.6 1020.6 0.0
20/03:00pm 17.9 12.5 1.0 32 7.5 N 19 24 10 13 1020.8 1020.8 0.0
20/02:30pm 17.6 12.0 1.2 33 7.3 N 20 30 11 16 1021.1 1021.1 0.0
20/02:00pm 17.9 12.3 1.4 33 7.4 N 20 32 11 17 1021.5 1021.5 0.0
20/01:30pm 17.7 12.2 2.1 35 7.0 N 20 30 11 16 1022.2 1022.2 0.0
20/01:00pm 17.5 12.3 2.3 36 6.9 NNE 19 28 10 15 1022.7 1022.8 0.0
20/12:30pm 17.3 12.0 2.1 36 6.8 NNE 19 32 10 17 1023.3 1023.4 0.0
20/12:00pm 16.6 11.7 2.2 38 6.4 NNE 17 26 9 14 1024.0 1024.1 0.0
20/11:30am 15.9 10.5 2.7 41 5.9 NNE 20 26 11 14 1024.4 1024.5 0.0
20/11:00am 15.6 10.0 3.4 44 5.6 NE 22 30 12 16 1024.8 1024.9 0.0
20/10:30am 14.3 9.7 3.5 48 4.9 NE 17 24 9 13 1025.4 1025.5 0.0
20/10:00am 13.4 8.8 3.5 51 4.5 NE 17 22 9 12 1025.6 1025.7 0.0
20/09:30am 11.1 7.9 2.9 57 3.5 NNE 9 11 5 6 1025.7 1025.8 0.0
20/09:00am 9.0 5.8 3.0 66 2.5 SE 9 11 5 6 1025.6 1025.7 0.0
20/08:30am 6.4 2.8 3.0 79 1.4 N 11 13 6 7 1025.4 1025.5 0.0
20/08:00am 3.5 0.2 2.6 94 0.4 E 9 11 5 6 1024.9 1025.0 0.0
20/07:30am 1.2 -2.8 0.3 94 0.3 N 11 11 6 6 1024.6 1024.7 0.0
20/07:00am 1.3 -2.7 0.4 94 0.3 SE 11 13 6 7 1024.5 1024.6 0.0
20/06:30am 2.5 -1.7 1.6 94 0.3 SE 13 15 7 8 1024.4 1024.5 0.0
20/06:00am 2.4 -1.8 1.5 94 0.3 NNE 13 13 7 7 1024.3 1024.4 0.0
20/05:30am 3.1 -1.0 2.2 94 0.4 SE 13 15 7 8 1024.2 1024.3 0.0
20/05:00am 2.9 -1.6 2.0 94 0.4 SE 15 17 8 9 1024.1 1024.2 0.0
20/04:30am 2.6 -1.6 1.4 92 0.5 NE 13 17 7 9 1024.1 1024.2 0.0
20/04:00am 3.2 -1.3 1.9 91 0.5 NNE 15 17 8 9 1023.9 1024.0 0.0
20/03:30am 3.0 -1.3 1.1 87 0.7 E 13 15 7 8 1024.0 1024.1 0.0
20/03:00am 4.1 1.1 2.0 86 0.8 N 7 9 4 5 1024.2 1024.3 0.0
20/02:30am 4.3 0.5 2.0 85 0.9 E 11 13 6 7 1024.0 1024.1 0.0
20/02:00am 4.4 0.9 1.4 81 1.2 NE 9 11 5 6 1024.0 1024.1 0.0
20/01:30am 5.3 2.3 2.1 80 1.3 N 7 9 4 5 1024.1 1024.2 0.0
20/01:00am 5.5 2.1 2.0 78 1.4 N 9 11 5 6 1024.1 1024.2 0.0
20/12:30am 6.2 2.9 2.3 76 1.6 N 9 11 5 6 1024.1 1024.2 0.0
20/12:00am 7.0 2.7 3.1 76 1.6 E 15 17 8 9 1024.2 1024.3 0.0
 
Date/Time
CST
Temp
°C
App
Temp
°C
Dew
Point
°C
Rel
Hum
%
Delta-T
°C
Wind Press
QNH
hPa
Press
MSL
hPa
Rain since
9am
mm
Dir  Spd
km/h
Gust
km/h
Spd
kts
Gust
kts
19/11:30pm 7.0 2.3 3.1 76 1.6 SE 17 20 9 11 1023.9 1024.0 0.0
19/11:00pm 7.5 3.2 3.4 75 1.7 SE 15 17 8 9 1024.1 1024.2 0.0
19/10:30pm 7.0 3.7 2.5 73 1.9 N 9 9 5 5 1024.4 1024.5 0.0
19/10:00pm 7.3 3.6 2.6 72 2.0 N 11 13 6 7 1024.4 1024.5 0.0
19/09:30pm 8.4 4.4 2.6 67 2.4 NNW 13 13 7 7 1024.4 1024.5 0.0
19/09:00pm 8.7 5.4 2.5 65 2.6 SSW 9 11 5 6 1024.4 1024.5 0.0
19/08:30pm 8.8 5.1 2.2 63 2.7 WSW 11 13 6 7 1024.1 1024.2 0.0
19/08:00pm 10.0 5.8 1.9 57 3.4 WSW 13 17 7 9 1024.1 1024.2 0.0
19/07:30pm 11.5 7.1 2.8 55 3.8 SSW 15 17 8 9 1023.8 1023.9 0.0
19/07:00pm 12.1 7.7 2.6 52 4.1 SSW 15 17 8 9 1023.7 1023.8 0.0
19/06:30pm 13.5 9.5 3.0 49 4.7 SSW 13 17 7 9 1023.5 1023.6 0.0
19/06:00pm 14.6 9.8 2.5 44 5.4 S 17 20 9 11 1023.3 1023.4 0.0
19/05:30pm 16.1 10.7 2.5 40 6.1 S 20 24 11 13 1023.2 1023.3 0.0
19/05:00pm 17.2 11.9 2.8 38 6.6 S 20 28 11 15 1023.1 1023.2 0.0
19/04:30pm 17.7 12.1 3.2 38 6.7 SSE 22 28 12 15 1023.1 1023.2 0.0
19/04:00pm 18.3 12.9 2.6 35 7.2 S 20 32 11 17 1023.1 1023.2 0.0
19/03:30pm 18.2 12.2 3.3 37 6.9 S 24 32 13 17 1023.0 1023.1 0.0
19/03:00pm 18.1 12.2 3.9 39 6.7 SSE 24 35 13 19 1023.1 1023.2 0.0
19/02:30pm 18.0 12.2 4.2 40 6.5 S 24 37 13 20 1023.4 1023.5 0.0
19/02:00pm 18.1 11.8 3.9 39 6.7 S 26 48 14 26 1023.4 1023.5 0.0
19/01:54pm 18.3 11.7 4.1 39 6.7 S 28 48 15 26 1023.3 1023.4 0.0
19/01:30pm 17.6 10.7 4.6 42 6.2 SSE 30 41 16 22 1023.6 1023.7 0.0
19/01:00pm 17.0 11.1 5.6 47 5.5 S 26 35 14 19 1024.1 1024.2 0.0
19/12:30pm 16.6 10.3 5.6 48 5.3 S 28 41 15 22 1024.8 1024.9 0.0
19/12:00pm 16.5 10.7 6.3 51 5.0 S 26 33 14 18 1025.4 1025.5 0.0
19/11:30am 15.8 9.7 6.5 54 4.5 S 28 39 15 21 1025.7 1025.8 0.0
19/11:00am 15.4 9.7 6.9 57 4.2 S 26 39 14 21 1026.1 1026.2 0.0
19/10:30am 14.4 8.2 7.7 64 3.3 S 30 37 16 20 1026.0 1026.1 0.0
19/10:00am 13.9 8.4 7.7 66 3.1 S 26 37 14 20 1025.9 1026.0 0.0
19/09:30am 13.2 8.2 8.1 71 2.5 S 24 32 13 17 1025.5 1025.6 0.0
19/09:00am 12.6 6.8 8.1 74 2.2 S 28 33 15 18 1025.2 1025.3 0.0
19/08:30am 11.6 7.9 9.3 86 1.2 SSW 19 26 10 14 1025.0 1025.1 0.0
19/08:00am 9.4 5.5 8.6 95 0.4 SW 19 24 10 13 1024.6 1024.7 0.0
19/07:30am 8.2 3.1 7.6 96 0.3 SW 24 28 13 15 1024.3 1024.4 0.0
19/07:00am 7.8 3.5 7.2 96 0.3 WSW 19 22 10 12 1024.3 1024.4 0.0
19/06:30am 8.1 4.6 7.3 95 0.4 WSW 15 19 8 10 1024.0 1024.1 0.0
19/06:00am 8.6 4.3 7.8 95 0.4 SW 20 24 11 13 1023.6 1023.7 0.0
19/05:30am 8.8 4.7 8.0 95 0.4 SW 19 22 10 12 1023.4 1023.5 0.0
19/05:00am 9.5 5.0 8.4 93 0.5 SW 22 28 12 15 1023.2 1023.3 0.0
19/04:30am 9.9 4.9 8.0 88 0.9 SSW 24 32 13 17 1022.8 1022.9 0.0
19/04:00am 10.3 4.4 7.7 84 1.3 SSW 28 35 15 19 1022.8 1022.9 0.0
19/03:30am 10.3 4.6 6.8 79 1.6 SSW 26 30 14 16 1022.8 1022.9 0.0
19/03:00am 10.7 5.4 6.8 77 1.8 SSW 24 32 13 17 1023.0 1023.1 0.0
19/02:30am 10.9 5.6 6.6 75 2.0 SSW 24 32 13 17 1023.0 1023.1 0.0
19/02:00am 10.9 6.3 6.3 73 2.2 SSW 20 30 11 16 1023.1 1023.2 0.0
19/01:30am 11.5 6.1 6.2 70 2.5 SSW 24 35 13 19 1023.3 1023.4 0.0
19/01:00am 11.2 6.4 5.7 69 2.6 SSW 20 28 11 15 1023.3 1023.4 0.0
19/12:30am 11.6 5.6 5.5 66 2.8 SSW 26 35 14 19 1023.2 1023.3 0.0
19/12:00am 11.3 5.9 4.5 63 3.1 SW 22 26 12 14 1023.3 1023.4 0.0
 
Date/Time
CST
Temp
°C
App
Temp
°C
Dew
Point
°C
Rel
Hum
%
Delta-T
°C
Wind Press
QNH
hPa
Press
MSL
hPa
Rain since
9am
mm
Dir  Spd
km/h
Gust
km/h
Spd
kts
Gust
kts
18/11:30pm 11.7 6.2 4.0 59 3.4 SW 22 28 12 15 1023.4 1023.5 0.0
18/11:00pm 11.3 5.6 2.6 55 3.8 WSW 22 28 12 15 1023.3 1023.4 0.0
18/10:30pm 9.4 4.8 1.6 58 3.2 WSW 15 19 8 10 1023.3 1023.4 0.0
18/10:00pm 10.0 5.0 1.4 55 3.6 WSW 17 19 9 10 1023.1 1023.2 0.0
18/09:30pm 9.8 4.7 0.9 54 3.6 WSW 17 19 9 10 1022.8 1022.9 0.0
18/09:00pm 10.2 5.2 1.1 53 3.7 WSW 17 19 9 10 1022.6 1022.7 0.0
18/08:30pm 11.4 6.4 1.4 50 4.2 WSW 17 19 9 10 1022.4 1022.5 0.0
18/08:00pm 12.2 6.8 1.5 48 4.6 W 19 19 10 10 1022.2 1022.2 0.0
18/07:30pm 12.2 7.1 0.9 46 4.7 WSW 17 17 9 9 1021.9 1021.9 0.0
18/07:00pm 14.1 8.7 1.4 42 5.5 SW 19 22 10 12 1021.6 1021.6 0.0
18/06:30pm 14.9 9.5 1.4 40 5.9 SW 19 26 10 14 1021.1 1021.1 0.0
18/06:00pm 15.2 9.6 1.4 39 6.0 SW 20 30 11 16 1020.9 1020.9 0.0
18/05:30pm 16.1 7.7 1.4 37 6.5 SW 35 43 19 23 1020.7 1020.7 0.0
18/05:00pm 17.0 9.5 1.4 35 6.9 WSW 30 44 16 24 1020.4 1020.4 0.0
18/04:55pm 16.9 9.1 1.8 36 6.8 WSW 32 50 17 27 1020.4 1020.4 0.0
18/04:30pm 17.3 8.9 1.7 35 7.0 SW 35 44 19 24 1020.2 1020.2 0.0
18/04:00pm 17.9 10.1 1.8 34 7.3 SW 32 43 17 23 1020.3 1020.3 0.0
18/03:30pm 18.0 9.7 2.3 35 7.1 WSW 35 46 19 25 1020.3 1020.3 0.0
18/03:00pm 17.9 9.2 1.8 34 7.2 WSW 37 52 20 28 1020.2 1020.2 0.0
18/02:30pm 17.4 8.4 2.2 36 6.9 WSW 39 50 21 27 1020.3 1020.3 0.0
18/02:00pm 18.0 10.4 2.7 36 7.0 WSW 32 44 17 24 1020.2 1020.2 0.0
18/01:30pm 17.7 10.4 2.5 36 6.9 SW 30 39 16 21 1020.4 1020.4 0.0
18/01:00pm 17.1 9.8 2.3 37 6.7 WSW 30 57 16 31 1020.8 1020.8 0.0
18/12:58pm 17.1 9.4 2.3 37 6.7 WSW 32 57 17 31 1020.7 1020.7 0.0
18/12:30pm 17.1 9.5 2.7 38 6.5 WSW 32 41 17 22 1021.2 1021.2 0.0
18/12:00pm 16.7 8.6 3.4 41 6.1 WSW 35 48 19 26 1021.8 1021.8 0.0
18/11:30am 15.8 7.8 3.6 44 5.6 WSW 35 46 19 25 1022.1 1022.1 0.0
18/11:00am 15.5 8.3 4.8 49 5.0 SW 32 43 17 23 1022.5 1022.6 0.0
18/10:30am 15.1 8.2 4.8 50 4.8 SW 30 43 16 23 1022.6 1022.7 0.0
18/10:00am 14.9 8.5 5.4 53 4.5 SW 28 35 15 19 1022.5 1022.6 0.0
18/09:30am 13.9 8.3 5.5 57 3.9 SW 24 33 13 18 1022.4 1022.5 0.0
18/09:00am 12.4 9.2 4.9 60 3.4 WSW 11 20 6 11 1022.0 1022.0 0.0
18/08:30am 10.1 7.6 4.5 68 2.5 WSW 7 9 4 5 1021.7 1021.7 0.0

Other Formats:

Comma delimited format used in spreadsheet applications
http://www.bom.gov.au/fwo/IDS60801/IDS60801.95480.axf

JavaScript Object Notation format (JSON) in row-major order
http://www.bom.gov.au/fwo/IDS60801/IDS60801.95480.json